Time;durP1;ratioP1;P1;durP2;ratioP2;P2;SDS_P1;SDS_P2;PMS_P1;PMS_P2;Temp;Humidity;BMP_temperature;BMP_pressure;BME280_temperature;BME280_humidity;BME280_pressure;Samples;Min_cycle;Max_cycle;Signal;HPM_P1;HPM_P2
2021/11/27 00:02:36;;;;;;;2.70;2.03;;;17.20;51.70;;;;;;10452401;28;20224;-69
2021/11/27 00:07:58;;;;;;;3.43;2.00;;;17.20;51.40;;;;;;10426657;28;20225;-67
2021/11/27 00:13:23;;;;;;;2.60;1.97;;;17.30;51.60;;;;;;10451653;28;20201;-67
2021/11/27 00:18:45;;;;;;;2.50;1.90;;;17.20;51.70;;;;;;10457416;28;20228;-67
2021/11/27 00:24:08;;;;;;;2.57;1.90;;;17.20;51.70;;;;;;10457397;28;20197;-67
2021/11/27 00:29:31;;;;;;;2.77;2.13;;;17.20;51.90;;;;;;10455780;28;20201;-68
2021/11/27 00:34:53;;;;;;;2.30;1.90;;;17.20;51.50;;;;;;10453198;28;20223;-67
2021/11/27 00:40:16;;;;;;;1.63;1.47;;;17.20;51.70;;;;;;10454861;28;20199;-68
2021/11/27 00:45:42;;;;;;;3.10;2.03;;;17.20;51.80;;;;;;10453964;28;20201;-67
2021/11/27 00:51:06;;;;;;;2.87;1.77;;;17.20;52.30;;;;;;10455555;28;20204;-67
2021/11/27 00:56:29;;;;;;;2.13;1.70;;;17.20;51.70;;;;;;10451538;28;20223;-68
2021/11/27 01:01:53;;;;;;;2.30;1.97;;;17.10;51.80;;;;;;10454366;28;20208;-67
2021/11/27 01:07:16;;;;;;;1.70;1.60;;;17.10;51.90;;;;;;10452680;28;20614;-68
2021/11/27 01:12:38;;;;;;;2.43;1.70;;;17.20;51.70;;;;;;10452324;28;20278;-68
2021/11/27 01:18:04;;;;;;;1.67;1.57;;;17.10;51.60;;;;;;10452351;28;20213;-68
2021/11/27 01:23:26;;;;;;;2.07;1.77;;;17.10;51.80;;;;;;10453038;28;20193;-68
2021/11/27 01:28:49;;;;;;;1.83;1.70;;;17.10;51.90;;;;;;10432995;28;20213;-68
2021/11/27 01:34:12;;;;;;;3.33;1.90;;;17.10;51.80;;;;;;10455074;28;20587;-68
2021/11/27 01:39:35;;;;;;;1.93;1.73;;;17.10;52.00;;;;;;10454350;28;20205;-68
2021/11/27 01:44:57;;;;;;;2.20;1.80;;;17.10;52.40;;;;;;10452950;28;20682;-68
2021/11/27 01:50:21;;;;;;;2.27;1.83;;;17.10;51.80;;;;;;10454045;28;20201;-68
2021/11/27 01:55:44;;;;;;;1.90;1.73;;;17.10;51.70;;;;;;10452575;28;20275;-68
2021/11/27 02:01:09;;;;;;;2.97;2.10;;;17.10;51.60;;;;;;10452698;28;20201;-68
2021/11/27 02:06:35;;;;;;;1.93;1.73;;;17.10;51.80;;;;;;10452556;28;20213;-68
2021/11/27 02:11:59;;;;;;;1.90;1.70;;;17.10;51.80;;;;;;10453522;28;20205;-67
2021/11/27 02:17:21;;;;;;;2.17;1.33;;;17.10;51.60;;;;;;10453204;28;20698;-67
2021/11/27 02:22:44;;;;;;;1.73;1.63;;;17.10;51.50;;;;;;10452739;28;20200;-67
2021/11/27 02:28:07;;;;;;;1.93;1.43;;;17.10;51.50;;;;;;10451171;28;20899;-67
2021/11/27 02:33:29;;;;;;;1.63;1.40;;;17.10;51.70;;;;;;10452431;28;20220;-66
2021/11/27 02:38:53;;;;;;;2.33;2.00;;;17.10;51.60;;;;;;10451314;28;20210;-68
2021/11/27 02:44:15;;;;;;;2.20;1.67;;;17.10;51.40;;;;;;10452018;28;20566;-67
2021/11/27 02:49:38;;;;;;;1.80;1.50;;;17.10;51.60;;;;;;10451549;28;20193;-67
2021/11/27 02:55:02;;;;;;;2.00;1.80;;;17.10;51.60;;;;;;10443699;28;20930;-68
2021/11/27 03:00:24;;;;;;;2.10;1.90;;;17.10;51.90;;;;;;10451366;28;20200;-67
2021/11/27 03:05:47;;;;;;;1.57;1.40;;;17.10;51.70;;;;;;10450373;28;20236;-67
2021/11/27 03:11:10;;;;;;;2.20;2.00;;;17.10;51.80;;;;;;10451108;28;20694;-67
2021/11/27 03:16:35;;;;;;;2.43;1.60;;;17.10;51.60;;;;;;10451230;28;20226;-69
2021/11/27 03:21:58;;;;;;;2.07;1.43;;;17.10;51.80;;;;;;10451163;28;20278;-67
2021/11/27 03:27:21;;;;;;;2.03;1.60;;;17.10;51.80;;;;;;10451064;28;20670;-66
2021/11/27 03:32:43;;;;;;;2.07;1.60;;;17.10;51.60;;;;;;10450648;28;20204;-66
2021/11/27 03:38:06;;;;;;;1.90;1.67;;;17.10;51.60;;;;;;10450044;28;20220;-68
2021/11/27 03:43:29;;;;;;;2.27;1.70;;;17.00;51.70;;;;;;10449554;28;20201;-68
2021/11/27 03:48:54;;;;;;;1.60;1.40;;;17.00;51.90;;;;;;10454361;28;20213;-66
2021/11/27 03:54:17;;;;;;;1.90;1.53;;;17.00;51.70;;;;;;10452663;28;20348;-69
2021/11/27 03:59:41;;;;;;;1.77;1.60;;;17.00;51.70;;;;;;10451587;28;20200;-69
2021/11/27 04:05:04;;;;;;;2.43;1.57;;;17.00;51.80;;;;;;10457491;28;20213;-69
2021/11/27 04:10:27;;;;;;;2.17;1.90;;;17.00;51.90;;;;;;10457354;28;20208;-67
2021/11/27 04:15:51;;;;;;;2.73;2.00;;;17.00;52.00;;;;;;10456254;28;20229;-67
2021/11/27 04:21:18;;;;;;;1.90;1.80;;;17.00;52.00;;;;;;10456632;28;20201;-67
2021/11/27 04:26:40;;;;;;;1.73;1.63;;;17.00;52.10;;;;;;10456360;28;20213;-69
2021/11/27 04:32:04;;;;;;;2.00;1.80;;;16.90;52.10;;;;;;10456765;28;20208;-69
2021/11/27 04:37:26;;;;;;;2.20;1.77;;;16.90;52.20;;;;;;10454419;28;20224;-69
2021/11/27 04:42:48;;;;;;;2.50;2.00;;;16.90;52.10;;;;;;10456241;28;20208;-68
2021/11/27 04:48:12;;;;;;;2.30;1.70;;;16.90;52.10;;;;;;10456317;28;20209;-69
2021/11/27 04:53:35;;;;;;;2.03;1.80;;;16.90;52.10;;;;;;10455891;28;20197;-67
2021/11/27 04:58:57;;;;;;;2.10;1.80;;;16.90;52.10;;;;;;10454255;28;20592;-68
2021/11/27 05:04:20;;;;;;;1.67;1.53;;;16.90;51.90;;;;;;10454368;28;20201;-68
2021/11/27 05:09:42;;;;;;;2.80;2.27;;;16.90;51.80;;;;;;10457117;28;20276;-67
2021/11/27 05:15:06;;;;;;;2.97;1.97;;;16.90;51.90;;;;;;10454775;28;20564;-68
2021/11/27 05:20:29;;;;;;;2.60;2.20;;;16.90;52.00;;;;;;10454913;28;20204;-68
2021/11/27 05:25:51;;;;;;;4.83;2.20;;;16.90;52.10;;;;;;10455149;28;20536;-68
2021/11/27 05:31:16;;;;;;;2.40;2.03;;;16.90;52.00;;;;;;10454212;28;20582;-67
2021/11/27 05:36:40;;;;;;;2.50;2.30;;;16.90;51.90;;;;;;10453951;28;20247;-68
2021/11/27 05:42:02;;;;;;;3.90;2.00;;;17.00;52.00;;;;;;10453911;28;20219;-67
2021/11/27 05:47:24;;;;;;;2.63;2.07;;;16.90;51.90;;;;;;10453386;28;20239;-67
2021/11/27 05:52:48;;;;;;;3.20;2.23;;;17.00;51.70;;;;;;10453689;28;20208;-67
2021/11/27 05:58:10;;;;;;;2.83;2.43;;;17.00;51.50;;;;;;10445565;28;20248;-68
2021/11/27 06:03:33;;;;;;;2.33;2.00;;;17.00;51.20;;;;;;10453639;28;20247;-68
2021/11/27 06:08:57;;;;;;;2.50;2.10;;;17.10;51.10;;;;;;10477148;23;20232;-63
2021/11/27 06:14:19;;;;;;;2.63;2.40;;;17.20;50.70;;;;;;10482259;28;20220;-63
2021/11/27 06:19:41;;;;;;;3.00;2.40;;;17.20;50.40;;;;;;10470644;28;20854;-63
2021/11/27 06:25:05;;;;;;;3.37;2.40;;;17.20;50.40;;;;;;10483960;28;20912;-63
2021/11/27 06:30:28;;;;;;;2.87;2.57;;;17.20;50.40;;;;;;10493211;28;20239;-63
2021/11/27 06:35:50;;;;;;;3.13;2.80;;;17.20;50.40;;;;;;10492842;28;20215;-63
2021/11/27 06:41:14;;;;;;;2.73;2.43;;;17.20;50.60;;;;;;10484173;28;20212;-62
2021/11/27 06:46:36;;;;;;;2.40;2.20;;;17.20;50.70;;;;;;10476407;28;20196;-62
2021/11/27 06:51:58;;;;;;;2.97;2.30;;;17.20;50.70;;;;;;10451058;28;20201;-62
2021/11/27 06:57:21;;;;;;;2.40;2.20;;;17.10;50.70;;;;;;10477709;28;20228;-63
2021/11/27 07:02:43;;;;;;;2.30;2.10;;;17.10;51.00;;;;;;10492890;28;20204;-62
2021/11/27 07:08:07;;;;;;;2.83;2.13;;;17.10;51.20;;;;;;10491108;28;20220;-63
2021/11/27 07:13:30;;;;;;;3.17;2.80;;;17.10;51.30;;;;;;10483071;28;20651;-63
2021/11/27 07:18:53;;;;;;;3.63;2.50;;;17.10;51.40;;;;;;10469359;28;20213;-63
2021/11/27 07:24:15;;;;;;;2.53;2.30;;;17.00;51.60;;;;;;10470635;28;20191;-63
2021/11/27 07:29:39;;;;;;;2.53;2.23;;;17.00;51.60;;;;;;10466494;28;20561;-63
2021/11/27 07:35:01;;;;;;;3.53;2.63;;;17.00;51.60;;;;;;10450107;28;20582;-64
2021/11/27 07:40:23;;;;;;;3.73;2.90;;;17.00;51.80;;;;;;10449695;28;20231;-64
2021/11/27 07:45:47;;;;;;;3.63;2.87;;;17.00;51.90;;;;;;10458464;28;20193;-64
2021/11/27 07:51:09;;;;;;;3.20;2.90;;;16.90;51.60;;;;;;10489894;28;20718;-64
2021/11/27 07:56:31;;;;;;;3.67;2.67;;;17.00;51.60;;;;;;10491575;28;20217;-64
2021/11/27 08:01:55;;;;;;;3.27;2.70;;;16.90;51.50;;;;;;10488751;28;20553;-64
2021/11/27 08:07:18;;;;;;;4.27;3.20;;;17.00;51.60;;;;;;10490977;28;20213;-64
2021/11/27 08:12:40;;;;;;;4.67;2.87;;;17.00;51.30;;;;;;10483285;28;20193;-64
2021/11/27 08:18:04;;;;;;;4.00;2.40;;;17.10;51.20;;;;;;10491217;28;20220;-64
2021/11/27 08:23:26;;;;;;;2.27;2.07;;;17.20;51.10;;;;;;10473542;28;20197;-63
2021/11/27 08:28:48;;;;;;;3.23;2.67;;;17.30;51.60;;;;;;10457894;28;20217;-64
2021/11/27 08:34:11;;;;;;;3.60;2.93;;;17.30;50.50;;;;;;10464631;28;20216;-64
2021/11/27 08:39:33;;;;;;;2.87;2.30;;;17.40;50.00;;;;;;10456661;28;20221;-64
2021/11/27 08:44:56;;;;;;;3.03;2.50;;;17.40;50.70;;;;;;10459593;28;20208;-64
2021/11/27 08:50:19;;;;;;;2.87;2.57;;;17.40;50.20;;;;;;10498010;28;20657;-63
2021/11/27 08:55:41;;;;;;;3.70;2.57;;;17.40;50.50;;;;;;10484530;28;20224;-64
2021/11/27 09:01:05;;;;;;;3.10;2.37;;;17.40;50.00;;;;;;10476427;28;20728;-63
2021/11/27 09:06:29;;;;;;;3.17;2.60;;;17.40;50.00;;;;;;10469566;28;20184;-63
2021/11/27 09:11:51;;;;;;;3.47;2.77;;;17.40;50.40;;;;;;10478911;28;20208;-64
2021/11/27 09:17:13;;;;;;;2.33;2.13;;;17.40;49.90;;;;;;10454477;28;20599;-63
2021/11/27 09:22:37;;;;;;;3.03;2.60;;;17.50;49.80;;;;;;10461449;28;20226;-63
2021/11/27 09:28:00;;;;;;;2.90;2.60;;;17.40;49.50;;;;;;10458115;28;20217;-63
2021/11/27 09:33:22;;;;;;;5.00;3.07;;;17.40;50.20;;;;;;10454773;28;20194;-63
2021/11/27 09:38:45;;;;;;;4.10;2.60;;;17.40;49.80;;;;;;10454219;28;20699;-64
2021/11/27 09:44:09;;;;;;;3.03;2.50;;;17.40;49.50;;;;;;10454002;28;20193;-63
2021/11/27 09:49:31;;;;;;;2.63;2.13;;;17.40;49.70;;;;;;10493960;28;20590;-63
2021/11/27 09:54:55;;;;;;;4.97;2.90;;;17.50;50.50;;;;;;10482090;28;20691;-64
2021/11/27 10:00:19;;;;;;;4.27;3.20;;;17.40;49.80;;;;;;10452547;28;20291;-62
2021/11/27 10:05:41;;;;;;;3.40;2.93;;;17.40;49.60;;;;;;10453362;28;20197;-64
2021/11/27 10:11:04;;;;;;;2.80;2.50;;;17.40;49.80;;;;;;10453200;28;20229;-62
2021/11/27 10:16:28;;;;;;;2.63;2.10;;;17.50;50.10;;;;;;10452443;28;20221;-63
2021/11/27 10:21:56;;;;;;;3.07;2.20;;;17.50;50.40;;;;;;10459832;28;20206;-64
2021/11/27 10:27:23;;;;;;;2.67;2.40;;;17.40;51.10;;;;;;10478329;28;20220;-63
2021/11/27 10:32:47;;;;;;;2.97;2.50;;;17.50;51.20;;;;;;10451190;28;20196;-64
2021/11/27 10:38:09;;;;;;;4.47;2.73;;;17.40;50.20;;;;;;10477244;28;20228;-64
2021/11/27 10:43:34;;;;;;;3.70;2.70;;;17.50;50.30;;;;;;10488626;28;20671;-63
2021/11/27 10:48:56;;;;;;;3.33;2.60;;;17.40;50.30;;;;;;10463702;28;20301;-64
2021/11/27 10:54:18;;;;;;;3.30;2.60;;;17.50;50.20;;;;;;10451730;28;20210;-63
2021/11/27 10:59:41;;;;;;;3.90;3.20;;;17.50;50.50;;;;;;10450481;28;20225;-63
2021/11/27 11:05:11;;;;;;;3.90;2.90;;;17.50;50.30;;;;;;10451475;28;20208;-63
2021/11/27 11:10:34;;;;;;;3.07;2.43;;;17.50;50.10;;;;;;10468736;28;20285;-63
2021/11/27 11:15:58;;;;;;;4.17;2.70;;;17.50;50.30;;;;;;10479249;28;20223;-68
2021/11/27 11:21:22;;;;;;;3.43;2.60;;;17.50;50.40;;;;;;10475270;28;20208;-65
2021/11/27 11:26:54;;;;;;;3.27;2.50;;;17.50;50.40;;;;;;10474410;28;20185;-64
2021/11/27 11:32:20;;;;;;;2.40;2.17;;;17.50;50.60;;;;;;10457008;28;20193;-63
2021/11/27 11:37:43;;;;;;;2.50;2.00;;;17.50;50.90;;;;;;10468132;28;20668;-65
2021/11/27 11:43:05;;;;;;;2.87;2.27;;;17.60;51.50;;;;;;10461219;28;20208;-65
2021/11/27 11:48:30;;;;;;;3.37;2.77;;;17.60;50.60;;;;;;10482998;28;20215;-65
2021/11/27 11:53:55;;;;;;;2.63;2.43;;;17.50;50.10;;;;;;10475918;28;20228;-65
2021/11/27 11:59:19;;;;;;;4.43;2.57;;;17.50;50.20;;;;;;10455719;28;20228;-65
2021/11/27 12:05:09;;;;;;;6.83;2.90;;;17.50;50.50;;;;;;10471440;28;20580;-66
2021/11/27 12:10:38;;;;;;;5.40;2.20;;;17.50;50.80;;;;;;10443376;22;20252;-67
2021/11/27 12:16:11;;;;;;;2.87;2.27;;;17.40;51.20;;;;;;10416482;28;20214;-67
2021/11/27 12:21:35;;;;;;;3.10;2.47;;;17.30;51.40;;;;;;10404956;28;20223;-67
2021/11/27 12:27:10;;;;;;;3.17;2.40;;;17.30;51.90;;;;;;10414748;28;20202;-67
2021/11/27 12:32:43;;;;;;;3.17;2.57;;;17.30;52.30;;;;;;10410544;28;20217;-66
2021/11/27 12:38:31;;;;;;;2.50;2.30;;;17.30;52.50;;;;;;10407120;28;20222;-67
2021/11/27 12:44:14;;;;;;;4.23;2.53;;;17.30;52.60;;;;;;10406457;28;20681;-67
2021/11/27 12:49:53;;;;;;;3.40;2.40;;;17.20;52.80;;;;;;10412098;28;20296;-67
2021/11/27 12:55:36;;;;;;;4.60;2.30;;;17.20;53.60;;;;;;10410113;28;20197;-67
2021/11/27 13:00:58;;;;;;;2.23;2.03;;;17.20;53.20;;;;;;10413546;28;20224;-67
2021/11/27 13:06:20;;;;;;;3.57;2.50;;;17.20;53.40;;;;;;10411394;28;20576;-67
2021/11/27 13:11:47;;;;;;;2.17;1.90;;;17.20;53.50;;;;;;10412251;28;20233;-66
2021/11/27 13:17:12;;;;;;;2.60;2.40;;;17.10;53.20;;;;;;10412295;28;20566;-67
2021/11/27 13:22:34;;;;;;;3.00;2.30;;;17.20;53.10;;;;;;10407810;28;20293;-66
2021/11/27 13:27:58;;;;;;;2.77;2.37;;;17.30;52.80;;;;;;10408226;28;20217;-67
2021/11/27 13:33:22;;;;;;;2.60;2.23;;;17.40;52.60;;;;;;10409596;28;20209;-67
2021/11/27 13:38:44;;;;;;;2.43;2.23;;;17.40;52.60;;;;;;10414524;28;20257;-68
2021/11/27 13:44:08;;;;;;;2.40;2.20;;;17.40;52.50;;;;;;10447617;28;20197;-67
2021/11/27 13:49:33;;;;;;;2.20;2.00;;;17.40;52.50;;;;;;10453819;28;20220;-67
2021/11/27 13:54:57;;;;;;;3.63;2.60;;;17.40;52.70;;;;;;10454746;28;20197;-68
2021/11/27 14:00:23;;;;;;;3.70;2.37;;;17.50;53.00;;;;;;10446938;28;20225;-67
2021/11/27 14:05:50;;;;;;;2.40;2.20;;;17.40;53.20;;;;;;10447964;28;20572;-66
2021/11/27 14:11:13;;;;;;;2.33;2.13;;;17.40;53.30;;;;;;10445087;28;20303;-68
2021/11/27 14:16:43;;;;;;;3.27;2.10;;;17.30;53.40;;;;;;10450530;28;20232;-66
2021/11/27 14:22:07;;;;;;;4.50;3.00;;;17.40;53.70;;;;;;10450314;28;20428;-67
2021/11/27 14:27:29;;;;;;;3.73;2.70;;;18.10;51.30;;;;;;10446130;28;20211;-66
2021/11/27 14:32:53;;;;;;;3.40;2.57;;;17.60;52.60;;;;;;10451682;28;20200;-67
2021/11/27 14:38:15;;;;;;;3.07;2.23;;;17.40;53.20;;;;;;10450301;28;20418;-67
2021/11/27 14:43:48;;;;;;;3.43;2.23;;;17.30;53.50;;;;;;10451418;28;20209;-67
2021/11/27 14:49:27;;;;;;;2.77;2.20;;;17.20;53.70;;;;;;10449271;28;20584;-67
2021/11/27 14:54:51;;;;;;;3.43;2.70;;;17.20;53.60;;;;;;10449398;28;20208;-67
2021/11/27 15:00:15;;;;;;;3.20;2.70;;;17.20;53.40;;;;;;10451081;28;20217;-67
2021/11/27 15:05:38;;;;;;;3.23;2.70;;;17.20;53.30;;;;;;10451418;28;20684;-67
2021/11/27 15:11:01;;;;;;;3.27;2.63;;;17.30;53.00;;;;;;10438258;28;20224;-66
2021/11/27 15:16:23;;;;;;;2.70;1.93;;;17.30;52.80;;;;;;10450174;28;20196;-67
2021/11/27 15:21:48;;;;;;;4.20;2.70;;;17.30;52.80;;;;;;10449943;28;20221;-67
2021/11/27 15:27:11;;;;;;;2.30;2.10;;;17.30;52.90;;;;;;10439570;28;20203;-65
2021/11/27 15:32:33;;;;;;;2.67;1.63;;;17.30;53.10;;;;;;10452949;28;20197;-65
2021/11/27 15:37:57;;;;;;;2.97;2.17;;;17.20;53.30;;;;;;10450544;28;20228;-65
2021/11/27 15:43:19;;;;;;;2.93;2.10;;;17.20;53.30;;;;;;10442083;28;20204;-64
2021/11/27 15:48:42;;;;;;;2.40;2.20;;;17.20;53.20;;;;;;10459152;28;20217;-65
2021/11/27 15:54:06;;;;;;;1.80;1.70;;;17.20;53.30;;;;;;10457950;28;20672;-64
2021/11/27 15:59:29;;;;;;;2.30;1.90;;;17.10;53.30;;;;;;10455026;28;20221;-65
2021/11/27 16:04:51;;;;;;;1.80;1.70;;;17.10;53.40;;;;;;10452934;28;20197;-65
2021/11/27 16:10:14;;;;;;;2.03;1.83;;;17.10;53.50;;;;;;10458535;28;20511;-65
2021/11/27 16:15:36;;;;;;;2.23;2.00;;;17.10;53.60;;;;;;10446340;28;20197;-65
2021/11/27 16:20:58;;;;;;;2.27;2.07;;;17.10;53.50;;;;;;10457677;28;20232;-65
2021/11/27 16:26:22;;;;;;;2.90;1.80;;;17.10;53.40;;;;;;10457586;28;20212;-66
2021/11/27 16:31:44;;;;;;;2.10;1.70;;;17.10;53.30;;;;;;10417362;28;20214;-65
2021/11/27 16:37:06;;;;;;;2.03;1.83;;;17.10;53.40;;;;;;10456343;28;20572;-68
2021/11/27 16:42:32;;;;;;;1.93;1.83;;;17.10;53.40;;;;;;10456469;28;20201;-68
2021/11/27 16:47:54;;;;;;;2.93;1.83;;;17.00;53.50;;;;;;10447474;28;20216;-69
2021/11/27 16:53:16;;;;;;;2.30;1.87;;;17.00;53.50;;;;;;10452265;28;20197;-68
2021/11/27 16:58:40;;;;;;;3.00;1.93;;;17.10;53.20;;;;;;10455904;28;20235;-69
2021/11/27 17:04:02;;;;;;;1.93;1.73;;;17.10;53.10;;;;;;10443224;28;20227;-67
2021/11/27 17:09:24;;;;;;;3.17;2.10;;;17.10;53.30;;;;;;10454591;28;20228;-66
2021/11/27 17:14:47;;;;;;;2.70;2.10;;;17.10;53.40;;;;;;10454370;28;20204;-66
2021/11/27 17:20:11;;;;;;;2.87;2.43;;;17.20;53.30;;;;;;10444517;28;20225;-67
2021/11/27 17:25:33;;;;;;;2.50;2.27;;;17.10;53.20;;;;;;10449149;28;20205;-66
2021/11/27 17:30:56;;;;;;;6.47;2.43;;;17.10;53.30;;;;;;10455379;28;20692;-66
2021/11/27 17:36:19;;;;;;;2.10;1.90;;;17.10;53.50;;;;;;10450413;28;20205;-66
2021/11/27 17:41:47;;;;;;;1.90;1.70;;;17.10;53.60;;;;;;10454686;28;20220;-67
2021/11/27 17:47:10;;;;;;;2.40;2.20;;;17.10;53.70;;;;;;10455092;28;20195;-66
2021/11/27 17:52:32;;;;;;;2.33;2.13;;;17.00;53.70;;;;;;10446229;28;20201;-66
2021/11/27 17:57:54;;;;;;;4.17;2.10;;;17.00;53.80;;;;;;10454391;28;20727;-66
2021/11/27 18:03:18;;;;;;;2.00;1.80;;;17.00;53.70;;;;;;10453720;28;20208;-66
2021/11/27 18:08:40;;;;;;;2.20;1.90;;;17.00;53.60;;;;;;10449821;28;20225;-66
2021/11/27 18:14:03;;;;;;;3.27;2.27;;;17.00;53.30;;;;;;10446855;28;20243;-66
2021/11/27 18:19:27;;;;;;;2.13;1.90;;;17.00;53.70;;;;;;10446012;28;20221;-66
2021/11/27 18:24:57;;;;;;;2.07;1.83;;;17.10;53.20;;;;;;10444869;28;20637;-67
2021/11/27 18:30:21;;;;;;;2.27;2.07;;;17.10;53.20;;;;;;10451185;28;20213;-66
2021/11/27 18:35:46;;;;;;;2.57;2.27;;;17.10;53.00;;;;;;10450122;28;20201;-66
2021/11/27 18:41:08;;;;;;;2.23;2.03;;;17.10;53.20;;;;;;10449812;28;21225;-66
2021/11/27 18:46:30;;;;;;;3.27;2.63;;;17.00;53.20;;;;;;10446712;28;20216;-66
2021/11/27 18:51:54;;;;;;;2.57;2.33;;;17.00;53.20;;;;;;10456628;28;20220;-66
2021/11/27 18:57:16;;;;;;;3.10;2.73;;;17.00;53.10;;;;;;10450945;28;20282;-66
2021/11/27 19:02:38;;;;;;;2.60;2.40;;;16.90;53.10;;;;;;10443281;28;20208;-66
2021/11/27 19:08:02;;;;;;;3.17;2.87;;;17.00;53.00;;;;;;10446561;28;20292;-66
2021/11/27 19:13:24;;;;;;;3.93;3.07;;;17.00;52.70;;;;;;10449118;28;20775;-65
2021/11/27 19:18:48;;;;;;;2.87;2.63;;;17.50;50.70;;;;;;10449356;28;20233;-66
2021/11/27 19:24:11;;;;;;;3.27;2.47;;;17.30;51.20;;;;;;10453779;22;20241;-69
2021/11/27 19:29:33;;;;;;;2.50;2.30;;;17.20;51.70;;;;;;10349000;28;20572;-68
2021/11/27 19:34:56;;;;;;;3.63;2.30;;;17.20;51.90;;;;;;10348757;28;20575;-68
2021/11/27 19:40:19;;;;;;;2.50;2.30;;;17.10;52.00;;;;;;10365079;28;20580;-66
2021/11/27 19:45:41;;;;;;;2.57;2.37;;;17.10;52.20;;;;;;10343379;28;20230;-70
2021/11/27 19:51:03;;;;;;;2.73;2.47;;;17.10;52.40;;;;;;10357913;28;20203;-68
2021/11/27 19:56:30;;;;;;;2.60;2.40;;;17.00;52.40;;;;;;10350668;28;20222;-68
2021/11/27 20:01:52;;;;;;;2.67;2.47;;;17.00;52.50;;;;;;10351257;28;20230;-67
2021/11/27 20:07:14;;;;;;;3.20;2.40;;;17.00;52.60;;;;;;10344643;28;20696;-66
2021/11/27 20:12:38;;;;;;;2.30;2.10;;;17.00;52.70;;;;;;10349636;28;20198;-67
2021/11/27 20:18:01;;;;;;;2.53;2.23;;;17.00;52.50;;;;;;10349747;28;20305;-68
2021/11/27 20:23:23;;;;;;;2.87;2.60;;;17.00;52.20;;;;;;10359869;28;20235;-68
2021/11/27 20:28:47;;;;;;;2.50;2.30;;;17.10;51.80;;;;;;10350236;28;20218;-66
2021/11/27 20:34:10;;;;;;;3.57;3.10;;;17.10;51.70;;;;;;10347745;28;20203;-67
2021/11/27 20:39:32;;;;;;;3.40;2.27;;;17.10;51.70;;;;;;10343006;28;20218;-67
2021/11/27 20:44:56;;;;;;;2.83;2.40;;;17.10;51.90;;;;;;10391493;28;20222;-67
2021/11/27 20:50:18;;;;;;;2.57;2.30;;;17.10;52.00;;;;;;10390621;28;20199;-67
2021/11/27 20:55:40;;;;;;;2.70;2.33;;;17.00;52.10;;;;;;10406548;28;20229;-67
2021/11/27 21:01:04;;;;;;;2.90;2.07;;;17.00;52.20;;;;;;10411543;28;20232;-67
2021/11/27 21:06:27;;;;;;;2.03;1.80;;;17.00;52.20;;;;;;10395167;28;20220;-66
2021/11/27 21:11:49;;;;;;;2.23;2.00;;;17.00;52.20;;;;;;10389198;28;20201;-67
2021/11/27 21:17:13;;;;;;;2.20;2.00;;;16.90;52.20;;;;;;10396552;28;20598;-67
2021/11/27 21:22:37;;;;;;;2.63;2.43;;;16.90;52.10;;;;;;10409218;28;20205;-67
2021/11/27 21:27:59;;;;;;;3.60;2.70;;;17.00;51.80;;;;;;10403376;28;20225;-67
2021/11/27 21:33:23;;;;;;;3.50;2.47;;;17.00;51.50;;;;;;10391947;28;20206;-67
2021/11/27 21:38:45;;;;;;;3.60;2.60;;;17.00;51.50;;;;;;10368881;28;20309;-67
2021/11/27 21:44:09;;;;;;;3.97;2.80;;;17.00;51.60;;;;;;10394243;28;20201;-67
2021/11/27 21:49:33;;;;;;;6.83;2.90;;;16.90;51.60;;;;;;10395584;28;20277;-67
2021/11/27 21:54:55;;;;;;;3.90;2.87;;;16.90;51.70;;;;;;10395027;28;20230;-67
2021/11/27 22:00:18;;;;;;;5.43;3.03;;;16.90;51.90;;;;;;10395041;28;20363;-67
2021/11/27 22:05:42;;;;;;;6.53;3.97;;;16.90;51.90;;;;;;10408562;28;20304;-67
2021/11/27 22:11:04;;;;;;;5.23;3.70;;;16.80;51.90;;;;;;10404846;28;20200;-67
2021/11/27 22:16:26;;;;;;;6.20;4.27;;;16.80;52.00;;;;;;10390936;28;20576;-67
2021/11/27 22:21:49;;;;;;;6.93;4.23;;;16.80;52.00;;;;;;10391369;28;20607;-67
2021/11/27 22:27:13;;;;;;;5.43;3.30;;;16.80;51.80;;;;;;10403026;28;20230;-67
2021/11/27 22:32:35;;;;;;;6.93;3.73;;;16.80;51.70;;;;;;10398958;28;20199;-67
2021/11/27 22:37:59;;;;;;;4.20;3.20;;;16.90;51.40;;;;;;10399294;28;20703;-67
2021/11/27 22:43:21;;;;;;;6.37;3.70;;;16.90;51.40;;;;;;10392357;28;20695;-67
2021/11/27 22:48:44;;;;;;;4.07;2.87;;;16.90;51.30;;;;;;10368397;28;20214;-66
2021/11/27 22:54:07;;;;;;;5.17;3.17;;;16.90;51.40;;;;;;10396393;28;20207;-67
2021/11/27 22:59:30;;;;;;;4.67;3.30;;;16.90;51.50;;;;;;10395317;28;20222;-67
2021/11/27 23:04:52;;;;;;;4.53;3.13;;;16.90;51.50;;;;;;10390438;28;20225;-67
2021/11/27 23:10:15;;;;;;;3.90;2.53;;;16.80;51.50;;;;;;10385891;28;20197;-68
2021/11/27 23:15:39;;;;;;;3.77;2.80;;;16.80;51.50;;;;;;10408719;28;20221;-67
2021/11/27 23:21:01;;;;;;;6.00;2.90;;;16.80;51.60;;;;;;10377051;28;20569;-67
2021/11/27 23:26:25;;;;;;;4.33;3.00;;;16.80;51.60;;;;;;10380616;28;20229;-68
2021/11/27 23:31:49;;;;;;;6.97;3.13;;;16.80;51.60;;;;;;10399748;28;20229;-67
2021/11/27 23:37:13;;;;;;;5.93;2.97;;;16.80;51.60;;;;;;10404430;28;20222;-67
2021/11/27 23:42:37;;;;;;;8.00;3.43;;;16.80;51.50;;;;;;10400930;28;20218;-67
2021/11/27 23:47:59;;;;;;;7.03;3.30;;;16.80;51.40;;;;;;10390805;28;20213;-67
2021/11/27 23:53:21;;;;;;;7.00;3.40;;;16.80;51.40;;;;;;10402525;28;20718;-66
2021/11/27 23:58:46;;;;;;;8.27;3.50;;;16.90;51.50;;;;;;10409659;28;20229;-69
